createdAt,value
2023-05-20T00:00:47.734Z,49.15
2023-05-20T00:01:47.796Z,49.16
2023-05-20T00:02:47.866Z,49.15
2023-05-20T00:03:47.993Z,49.15
2023-05-20T00:04:48.023Z,49.14
2023-05-20T00:05:48.028Z,49.14
2023-05-20T00:06:48.109Z,49.15
2023-05-20T00:07:48.172Z,49.13
2023-05-20T00:08:48.238Z,49.14
2023-05-20T00:09:48.289Z,49.13
2023-05-20T00:10:48.343Z,49.14
2023-05-20T00:11:48.399Z,49.11
2023-05-20T00:12:48.466Z,49.17
2023-05-20T00:13:48.509Z,49.14
2023-05-20T00:14:48.573Z,49.17
2023-05-20T00:15:48.663Z,49.16
2023-05-20T00:16:48.788Z,49.16
2023-05-20T00:17:48.820Z,49.18
2023-05-20T00:18:48.869Z,49.16
2023-05-20T00:19:48.853Z,49.13
2023-05-20T00:20:48.933Z,49.15
2023-05-20T00:21:49.034Z,49.14
2023-05-20T00:22:49.115Z,49.13
2023-05-20T00:23:49.138Z,49.09
2023-05-20T00:24:49.207Z,49.08
2023-05-20T00:25:49.249Z,49.08
2023-05-20T00:26:49.309Z,49.07
2023-05-20T00:27:49.393Z,49.08
2023-05-20T00:28:49.440Z,49.11
2023-05-20T00:29:49.496Z,49.10
2023-05-20T00:30:49.558Z,49.15
2023-05-20T00:31:49.668Z,49.14
2023-05-20T00:33:29.439Z,49.24
2023-05-20T00:34:29.422Z,49.18
2023-05-20T00:35:29.375Z,49.22
2023-05-20T00:36:29.353Z,49.18
2023-05-20T00:37:29.361Z,49.16
2023-05-20T00:38:29.329Z,49.11
2023-05-20T00:39:29.275Z,49.11
2023-05-20T00:40:29.265Z,49.11
2023-05-20T00:41:29.225Z,49.12
2023-05-20T00:42:29.207Z,49.11
2023-05-20T00:43:29.171Z,49.09
2023-05-20T00:44:29.185Z,49.11
2023-05-20T00:45:29.160Z,49.08
2023-05-20T00:46:29.226Z,49.11
2023-05-20T00:47:29.106Z,49.08
2023-05-20T00:48:29.049Z,49.11
2023-05-20T00:49:28.995Z,49.13
2023-05-20T00:50:28.964Z,49.12
2023-05-20T00:51:28.962Z,49.10
2023-05-20T00:52:28.939Z,49.11
2023-05-20T00:53:28.926Z,49.12
2023-05-20T00:54:28.930Z,49.14
2023-05-20T00:55:28.863Z,49.14
2023-05-20T00:56:28.847Z,49.14
2023-05-20T00:57:28.862Z,49.13
2023-05-20T00:58:28.819Z,49.15
2023-05-20T00:59:28.769Z,49.17
2023-05-20T01:00:28.775Z,49.16
2023-05-20T01:01:28.760Z,49.15
2023-05-20T01:02:28.783Z,49.14
2023-05-20T01:03:28.773Z,49.14
2023-05-20T01:04:28.664Z,49.14
2023-05-20T01:05:28.641Z,49.16
2023-05-20T01:06:28.609Z,49.17
2023-05-20T01:07:28.591Z,49.14
2023-05-20T01:08:28.543Z,49.09
2023-05-20T01:09:28.530Z,49.13
2023-05-20T01:10:28.514Z,49.15
2023-05-20T01:11:28.449Z,49.13
2023-05-20T01:12:28.448Z,49.12
2023-05-20T01:13:28.440Z,49.17
2023-05-20T01:14:28.418Z,49.18
2023-05-20T01:15:28.353Z,49.16
2023-05-20T01:16:28.387Z,49.16
2023-05-20T01:17:28.369Z,49.18
2023-05-20T01:18:28.282Z,49.14
2023-05-20T01:19:28.356Z,49.12
2023-05-20T01:20:28.232Z,49.11
2023-05-20T01:21:28.202Z,49.10
2023-05-20T01:22:28.167Z,49.09
2023-05-20T01:23:28.136Z,49.08
2023-05-20T01:24:28.117Z,49.08
2023-05-20T01:25:28.086Z,49.07
2023-05-20T01:26:28.054Z,49.05
2023-05-20T01:27:28.045Z,49.04
2023-05-20T01:28:28.003Z,49.07
2023-05-20T01:29:27.943Z,49.06
2023-05-20T01:30:27.954Z,49.07
2023-05-20T01:31:27.962Z,49.05
2023-05-20T01:32:27.934Z,49.11
2023-05-20T01:33:27.867Z,49.12
2023-05-20T01:34:27.818Z,49.07
2023-05-20T01:35:27.818Z,49.04
2023-05-20T01:36:27.840Z,49.06
2023-05-20T01:37:27.747Z,49.06
2023-05-20T01:38:27.741Z,49.08
2023-05-20T01:39:27.697Z,49.09
2023-05-20T01:40:27.625Z,49.07
2023-05-20T01:41:27.629Z,49.03
2023-05-20T01:42:27.580Z,49.08
2023-05-20T01:43:27.592Z,49.06
2023-05-20T01:44:27.511Z,49.08
2023-05-20T01:45:27.526Z,49.07
2023-05-20T01:46:27.607Z,49.05
2023-05-20T01:47:27.490Z,49.08
2023-05-20T01:48:27.454Z,49.06
2023-05-20T01:49:27.442Z,49.05
2023-05-20T01:50:27.407Z,49.06
2023-05-20T01:51:27.370Z,49.03
2023-05-20T01:52:27.360Z,49.03
2023-05-20T01:53:27.673Z,49.06
2023-05-20T01:54:27.325Z,49.06
2023-05-20T01:55:27.259Z,49.02
2023-05-20T01:56:27.249Z,49.05
2023-05-20T01:57:27.204Z,49.04
2023-05-20T01:58:27.187Z,49.06
2023-05-20T01:59:27.148Z,49.01
2023-05-20T02:00:27.119Z,49.03
2023-05-20T02:01:27.154Z,49.06
2023-05-20T02:02:27.197Z,49.02
2023-05-20T02:03:27.122Z,49.05
2023-05-20T02:04:27.026Z,49.05
2023-05-20T02:05:27.059Z,49.05
2023-05-20T02:06:26.979Z,49.02
2023-05-20T02:07:26.951Z,49.02
2023-05-20T02:08:26.952Z,49.01
2023-05-20T02:09:26.892Z,49.04
2023-05-20T02:10:26.846Z,49.05
2023-05-20T02:11:26.860Z,48.97
2023-05-20T02:12:26.815Z,49.02
2023-05-20T02:13:26.812Z,48.99
2023-05-20T02:14:26.796Z,49.04
2023-05-20T02:15:26.752Z,49.07
2023-05-20T02:16:26.741Z,49.03
2023-05-20T02:17:26.727Z,49.02
2023-05-20T02:18:26.697Z,49.00
2023-05-20T02:19:26.705Z,48.99
2023-05-20T02:20:26.619Z,48.96
2023-05-20T02:21:26.575Z,48.98
2023-05-20T02:22:26.603Z,48.97
2023-05-20T02:23:26.624Z,48.96
2023-05-20T02:24:26.600Z,48.93
2023-05-20T02:25:26.572Z,48.98
2023-05-20T02:26:26.566Z,48.96
2023-05-20T02:27:26.583Z,48.95
2023-05-20T02:28:26.518Z,48.99
2023-05-20T02:29:26.495Z,48.95
2023-05-20T02:30:26.477Z,48.97
2023-05-20T02:31:26.477Z,48.92
2023-05-20T02:32:26.415Z,48.95
2023-05-20T02:33:26.441Z,48.97
2023-05-20T02:34:26.569Z,48.95
2023-05-20T02:35:26.409Z,48.96
2023-05-20T02:36:26.351Z,48.95
2023-05-20T02:37:26.381Z,48.95
2023-05-20T02:38:26.334Z,48.96
2023-05-20T02:39:26.312Z,48.99
2023-05-20T02:40:26.336Z,48.98
2023-05-20T02:41:26.260Z,49.00
2023-05-20T02:42:26.238Z,48.95
2023-05-20T02:43:26.210Z,49.00
2023-05-20T02:44:26.212Z,48.95
2023-05-20T02:45:26.185Z,48.98
2023-05-20T02:46:26.203Z,48.98
2023-05-20T02:47:26.178Z,48.99
2023-05-20T02:48:26.162Z,48.93
2023-05-20T02:49:26.164Z,48.92
2023-05-20T02:50:26.097Z,48.95
2023-05-20T02:51:26.091Z,48.94
2023-05-20T02:52:26.033Z,48.90
2023-05-20T02:53:26.037Z,48.93
2023-05-20T02:54:26.004Z,48.93
2023-05-20T02:55:25.981Z,48.95
2023-05-20T02:56:25.975Z,48.94
2023-05-20T02:57:25.924Z,48.93
2023-05-20T02:58:25.967Z,48.89
2023-05-20T02:59:25.905Z,48.94
2023-05-20T03:00:25.877Z,48.93
2023-05-20T03:01:25.967Z,48.91
2023-05-20T03:02:25.843Z,48.92
2023-05-20T03:03:25.800Z,48.92
2023-05-20T03:04:25.862Z,48.89
2023-05-20T03:05:25.777Z,48.90
2023-05-20T03:06:25.769Z,48.92
2023-05-20T03:07:25.769Z,48.92
2023-05-20T03:08:25.771Z,48.91
2023-05-20T03:09:25.709Z,48.89
2023-05-20T03:10:25.708Z,48.93
2023-05-20T03:11:25.696Z,48.94
2023-05-20T03:12:25.631Z,48.94
2023-05-20T03:13:25.654Z,48.95
2023-05-20T03:14:25.604Z,48.94
2023-05-20T03:15:25.556Z,48.94
2023-05-20T03:16:25.618Z,48.94
2023-05-20T03:17:25.556Z,48.91
2023-05-20T03:18:25.524Z,48.95
2023-05-20T03:19:25.618Z,48.92
2023-05-20T03:20:25.467Z,48.93
2023-05-20T03:21:25.473Z,48.92
2023-05-20T03:22:25.486Z,48.89
2023-05-20T03:23:25.420Z,48.93
2023-05-20T03:24:25.392Z,48.92
2023-05-20T03:25:25.363Z,48.87
2023-05-20T03:26:25.378Z,48.87
2023-05-20T03:27:25.318Z,48.85
2023-05-20T03:28:25.329Z,48.86
2023-05-20T03:29:25.305Z,48.90
2023-05-20T03:30:25.278Z,48.91
2023-05-20T03:31:25.309Z,48.92
2023-05-20T03:32:25.284Z,48.92
2023-05-20T03:33:25.223Z,48.87
2023-05-20T03:34:25.207Z,48.90
2023-05-20T03:35:25.162Z,48.90
2023-05-20T03:36:25.167Z,48.92
2023-05-20T03:37:25.148Z,48.90
2023-05-20T03:38:25.153Z,48.88
2023-05-20T03:39:25.120Z,48.85
2023-05-20T03:40:25.068Z,48.86
2023-05-20T03:41:25.063Z,48.86
2023-05-20T03:42:25.010Z,48.88
2023-05-20T03:43:25.004Z,48.89
2023-05-20T03:44:24.993Z,48.91
2023-05-20T03:45:24.970Z,48.90
2023-05-20T03:46:24.942Z,48.92
2023-05-20T03:47:24.986Z,48.84
2023-05-20T03:48:24.910Z,48.84
2023-05-20T03:49:24.858Z,48.87
2023-05-20T03:50:24.889Z,48.83
2023-05-20T03:51:24.877Z,48.85
2023-05-20T03:52:24.864Z,48.84
2023-05-20T03:53:24.847Z,48.82
2023-05-20T03:54:24.758Z,48.82
2023-05-20T03:55:24.724Z,48.83
2023-05-20T03:56:24.725Z,48.85
2023-05-20T03:57:24.700Z,48.84
2023-05-20T03:58:24.671Z,48.83
2023-05-20T03:59:24.646Z,48.79
2023-05-20T04:00:24.619Z,48.81
2023-05-20T04:01:24.631Z,48.82
2023-05-20T04:02:24.740Z,48.79
2023-05-20T04:03:24.683Z,48.78
2023-05-20T04:04:24.642Z,48.80
2023-05-20T04:05:24.525Z,48.80
2023-05-20T04:06:24.519Z,48.81
2023-05-20T04:07:24.446Z,48.79
2023-05-20T04:08:24.462Z,48.75
2023-05-20T04:09:24.439Z,48.75
2023-05-20T04:10:24.440Z,48.74
2023-05-20T04:11:24.391Z,48.73
2023-05-20T04:12:24.395Z,48.75
2023-05-20T04:13:24.364Z,48.75
2023-05-20T04:14:24.372Z,48.73
2023-05-20T04:15:24.295Z,48.75
2023-05-20T04:16:24.321Z,48.74
2023-05-20T04:17:24.296Z,48.72
2023-05-20T04:18:24.246Z,48.70
2023-05-20T04:19:24.424Z,48.72
2023-05-20T04:20:24.210Z,48.69
2023-05-20T04:21:24.206Z,48.68
2023-05-20T04:22:24.158Z,48.71
2023-05-20T04:23:24.154Z,48.70
2023-05-20T04:24:24.111Z,48.70
2023-05-20T04:25:24.101Z,48.71
2023-05-20T04:26:24.104Z,48.69
2023-05-20T04:27:24.147Z,48.69
2023-05-20T04:28:24.188Z,48.62
2023-05-20T04:29:24.204Z,48.64
2023-05-20T04:30:24.114Z,48.64
2023-05-20T04:31:24.172Z,48.59
2023-05-20T04:32:24.131Z,48.62
2023-05-20T04:33:24.123Z,48.57
2023-05-20T04:34:24.127Z,48.61
2023-05-20T04:35:24.094Z,48.57
2023-05-20T04:36:24.111Z,48.60
2023-05-20T04:37:24.122Z,48.60
2023-05-20T04:38:24.130Z,48.61
2023-05-20T04:39:24.099Z,48.60
2023-05-20T04:40:24.076Z,48.60
2023-05-20T04:41:24.100Z,48.59
2023-05-20T04:42:24.119Z,48.62
2023-05-20T04:43:24.147Z,48.58
2023-05-20T04:44:24.117Z,48.57
2023-05-20T04:45:24.126Z,48.63
2023-05-20T04:46:24.151Z,48.60
2023-05-20T04:47:24.168Z,48.63
2023-05-20T04:48:24.127Z,48.58
2023-05-20T04:49:24.140Z,48.59
2023-05-20T04:50:24.153Z,48.58
2023-05-20T04:51:24.201Z,48.59
2023-05-20T04:52:24.147Z,48.59
2023-05-20T04:53:24.208Z,48.55
2023-05-20T04:54:24.168Z,48.59
2023-05-20T04:55:24.203Z,48.59
2023-05-20T04:56:24.181Z,48.60
2023-05-20T04:57:24.191Z,48.56
2023-05-20T04:58:24.163Z,48.57
2023-05-20T04:59:24.177Z,48.56
2023-05-20T05:00:24.186Z,48.53
2023-05-20T05:01:24.224Z,48.57
2023-05-20T05:02:24.177Z,48.53
2023-05-20T05:03:24.233Z,48.51
2023-05-20T05:04:24.315Z,48.52
2023-05-20T05:05:24.288Z,48.49
2023-05-20T05:06:24.261Z,48.50
2023-05-20T05:07:24.340Z,48.46
2023-05-20T05:08:24.335Z,48.44
2023-05-20T05:09:24.345Z,48.43
2023-05-20T05:10:24.358Z,48.45
2023-05-20T05:11:24.380Z,48.43
2023-05-20T05:12:24.392Z,48.42
2023-05-20T05:13:24.376Z,48.43
2023-05-20T05:14:24.407Z,48.42
2023-05-20T05:15:24.423Z,48.43
2023-05-20T05:16:24.426Z,48.39
2023-05-20T05:17:24.405Z,48.41
2023-05-20T05:18:24.418Z,48.39
2023-05-20T05:19:24.609Z,48.37
2023-05-20T05:20:24.436Z,48.37
2023-05-20T05:21:24.433Z,48.38
2023-05-20T05:22:24.469Z,48.36
2023-05-20T05:23:24.662Z,48.34
2023-05-20T05:24:24.530Z,48.33
2023-05-20T05:25:24.570Z,48.33
2023-05-20T05:26:24.646Z,48.30
2023-05-20T05:27:24.674Z,48.32
2023-05-20T05:28:24.737Z,48.30
2023-05-20T05:29:24.776Z,48.32
2023-05-20T05:30:24.822Z,48.29
2023-05-20T05:31:24.802Z,48.27
2023-05-20T05:32:24.934Z,48.29
2023-05-20T05:33:24.950Z,48.28
2023-05-20T05:34:24.906Z,48.28
2023-05-20T05:35:24.950Z,48.25
2023-05-20T05:36:25.019Z,48.25
2023-05-20T05:37:25.063Z,48.29
2023-05-20T05:38:25.098Z,48.30
2023-05-20T05:39:25.119Z,48.30
2023-05-20T05:40:25.269Z,48.31
2023-05-20T05:41:25.186Z,48.28
2023-05-20T05:42:25.239Z,48.29
2023-05-20T05:43:25.267Z,48.26
2023-05-20T05:44:25.326Z,48.24
2023-05-20T05:45:25.374Z,48.25
2023-05-20T05:46:25.485Z,48.25
2023-05-20T05:47:25.474Z,48.28
2023-05-20T05:48:25.525Z,48.30
2023-05-20T05:49:25.526Z,48.31
2023-05-20T05:50:25.570Z,48.31
2023-05-20T05:51:25.657Z,48.34
2023-05-20T05:52:25.658Z,48.34
2023-05-20T05:53:25.696Z,48.33
2023-05-20T05:54:25.763Z,48.34
2023-05-20T05:55:25.796Z,48.33
2023-05-20T05:56:25.798Z,48.36
2023-05-20T05:57:25.819Z,48.33
2023-05-20T05:58:25.947Z,48.36
2023-05-20T05:59:25.899Z,48.35
2023-05-20T06:00:25.944Z,48.36
2023-05-20T06:01:26.010Z,48.36
2023-05-20T06:02:26.074Z,48.37
2023-05-20T06:03:26.128Z,48.36
2023-05-20T06:04:26.244Z,48.39
2023-05-20T06:05:28.904Z,48.40
2023-05-20T06:06:26.151Z,48.38
2023-05-20T06:07:26.105Z,48.34
2023-05-20T06:08:26.118Z,48.34
2023-05-20T06:09:26.075Z,48.35
2023-05-20T06:10:26.072Z,48.39
2023-05-20T06:11:26.030Z,48.38
2023-05-20T06:12:26.019Z,48.38
2023-05-20T06:13:26.005Z,48.37
2023-05-20T06:14:25.993Z,48.37
2023-05-20T06:15:25.988Z,48.34
2023-05-20T06:16:25.994Z,48.32
2023-05-20T06:17:25.927Z,48.30
2023-05-20T06:18:25.855Z,48.28
2023-05-20T06:19:25.932Z,48.23
2023-05-20T06:20:25.807Z,48.20
2023-05-20T06:21:25.776Z,48.23
2023-05-20T06:22:25.763Z,48.20
2023-05-20T06:23:25.695Z,48.22
2023-05-20T06:24:25.716Z,48.24
2023-05-20T06:25:25.673Z,48.25
2023-05-20T06:26:25.622Z,48.24
2023-05-20T06:27:25.592Z,48.24
2023-05-20T06:28:25.575Z,48.26
2023-05-20T06:29:25.567Z,48.28
2023-05-20T06:30:25.507Z,48.27
2023-05-20T06:31:25.743Z,48.22
2023-05-20T06:32:25.441Z,48.25
2023-05-20T06:33:25.417Z,48.21
2023-05-20T06:34:25.419Z,48.19
2023-05-20T06:35:25.377Z,48.19
2023-05-20T06:36:25.339Z,48.18
2023-05-20T06:37:25.359Z,48.19
2023-05-20T06:38:25.374Z,48.20
2023-05-20T06:39:25.273Z,48.18
2023-05-20T06:40:25.284Z,48.18
2023-05-20T06:41:25.284Z,48.18
2023-05-20T06:42:25.339Z,48.17
2023-05-20T06:43:25.413Z,48.15
2023-05-20T06:44:25.410Z,48.09
2023-05-20T06:45:25.446Z,48.02
2023-05-20T06:46:25.529Z,48.01
2023-05-20T06:47:25.555Z,48.01
2023-05-20T06:48:25.591Z,47.98
2023-05-20T06:49:25.604Z,47.96
2023-05-20T06:50:25.666Z,47.90
2023-05-20T06:51:25.674Z,47.86
2023-05-20T06:52:25.684Z,47.82
2023-05-20T06:53:25.783Z,47.82
2023-05-20T06:54:25.768Z,47.74
2023-05-20T06:55:25.835Z,47.71
2023-05-20T06:56:25.875Z,47.74
2023-05-20T06:57:25.885Z,47.75
2023-05-20T06:58:25.890Z,47.79
2023-05-20T06:59:25.895Z,47.78
2023-05-20T07:00:25.982Z,47.78
2023-05-20T07:01:25.991Z,47.80
2023-05-20T07:02:26.079Z,47.80
2023-05-20T07:03:26.170Z,47.76
2023-05-20T07:04:26.050Z,47.79
2023-05-20T07:05:26.074Z,47.79
2023-05-20T07:06:26.097Z,47.82
2023-05-20T07:07:26.137Z,47.84
2023-05-20T07:08:26.161Z,47.83
2023-05-20T07:09:26.208Z,47.82
2023-05-20T07:10:26.280Z,47.82
2023-05-20T07:11:26.237Z,47.82
2023-05-20T07:12:26.261Z,47.79
2023-05-20T07:13:26.480Z,47.78
2023-05-20T07:14:26.294Z,47.80
2023-05-20T07:15:26.326Z,47.78
2023-05-20T07:16:26.412Z,47.82
2023-05-20T07:17:26.446Z,47.82
2023-05-20T07:18:26.445Z,47.85
2023-05-20T07:19:26.531Z,47.85
2023-05-20T07:20:26.481Z,47.83
2023-05-20T07:21:26.497Z,47.82
2023-05-20T07:22:26.488Z,47.80
2023-05-20T07:23:26.567Z,47.82
2023-05-20T07:24:26.577Z,47.82
2023-05-20T07:25:26.585Z,47.78
2023-05-20T07:26:26.589Z,47.77
2023-05-20T07:27:26.612Z,47.77
2023-05-20T07:28:26.714Z,47.78
2023-05-20T07:29:26.628Z,47.74
2023-05-20T07:30:26.685Z,47.74
2023-05-20T07:31:26.709Z,47.68
2023-05-20T07:32:26.759Z,47.66
2023-05-20T07:33:26.765Z,47.65
2023-05-20T07:34:26.754Z,47.70
2023-05-20T07:35:26.776Z,47.68
2023-05-20T07:36:26.780Z,47.66
2023-05-20T07:37:26.798Z,47.67
2023-05-20T07:38:26.806Z,47.69
2023-05-20T07:39:26.862Z,47.69
2023-05-20T07:40:26.852Z,47.72
2023-05-20T07:41:26.882Z,47.75
2023-05-20T07:42:26.883Z,47.76
2023-05-20T07:43:26.940Z,47.78
2023-05-20T07:44:26.926Z,47.80
2023-05-20T07:45:26.938Z,47.80
2023-05-20T07:46:26.996Z,47.81
2023-05-20T07:47:27.037Z,47.83
2023-05-20T07:48:26.990Z,47.82
2023-05-20T07:49:27.029Z,47.84
2023-05-20T07:50:27.080Z,47.81
2023-05-20T07:51:27.071Z,47.85
2023-05-20T07:52:27.073Z,47.83
2023-05-20T07:53:27.099Z,47.81
2023-05-20T07:54:27.118Z,47.84
2023-05-20T07:55:27.113Z,47.83
2023-05-20T07:56:27.160Z,47.84
2023-05-20T07:57:27.163Z,47.84
2023-05-20T07:58:27.193Z,47.84
2023-05-20T07:59:27.232Z,47.86
2023-05-20T08:00:27.237Z,47.85
2023-05-20T08:01:27.270Z,47.85
2023-05-20T08:02:27.353Z,47.84
2023-05-20T08:03:27.474Z,47.81
2023-05-20T08:04:27.967Z,47.81
2023-05-20T08:05:27.376Z,47.80
2023-05-20T08:06:29.618Z,47.81
2023-05-20T08:07:27.493Z,47.81
2023-05-20T08:08:27.559Z,47.82
2023-05-20T08:09:27.522Z,47.82
2023-05-20T08:10:27.539Z,47.79
2023-05-20T08:11:27.603Z,47.80
2023-05-20T08:12:27.563Z,47.77
2023-05-20T08:13:27.667Z,47.76
2023-05-20T08:14:27.581Z,47.75
2023-05-20T08:15:28.694Z,47.75
2023-05-20T08:16:27.635Z,47.74
2023-05-20T08:17:27.627Z,47.70
2023-05-20T08:18:27.613Z,47.68
2023-05-20T08:19:27.770Z,47.65
2023-05-20T08:20:27.656Z,47.64
2023-05-20T08:21:27.649Z,47.63
2023-05-20T08:22:27.641Z,47.62
2023-05-20T08:23:27.643Z,47.59
2023-05-20T08:24:27.616Z,47.58
2023-05-20T08:25:27.643Z,47.55
2023-05-20T08:26:27.736Z,47.53
2023-05-20T08:27:27.645Z,47.55
2023-05-20T08:28:27.649Z,47.58
2023-05-20T08:29:27.662Z,47.58
2023-05-20T08:30:27.636Z,47.59
2023-05-20T08:31:27.700Z,47.59
2023-05-20T08:32:27.708Z,47.56
2023-05-20T08:33:27.680Z,47.56
2023-05-20T08:34:27.673Z,47.59
2023-05-20T08:35:27.710Z,47.57
2023-05-20T08:36:27.696Z,47.54
2023-05-20T08:37:27.675Z,47.53
2023-05-20T08:38:27.725Z,47.52
2023-05-20T08:39:27.727Z,47.50
2023-05-20T08:40:27.730Z,47.48
2023-05-20T08:41:27.743Z,47.42
2023-05-20T08:42:27.744Z,47.42
2023-05-20T08:43:27.754Z,47.40
2023-05-20T08:44:27.777Z,47.38
2023-05-20T08:45:27.779Z,47.36
2023-05-20T08:46:27.804Z,47.38
2023-05-20T08:47:27.779Z,47.36
2023-05-20T08:48:27.824Z,47.39
2023-05-20T08:49:27.745Z,47.39
2023-05-20T08:50:27.746Z,47.42
2023-05-20T08:51:27.791Z,47.43
2023-05-20T08:52:27.787Z,47.44
2023-05-20T08:53:27.768Z,47.44
2023-05-20T08:54:27.740Z,47.43
2023-05-20T08:55:27.730Z,47.46
2023-05-20T08:56:30.003Z,47.46
2023-05-20T08:57:27.692Z,47.42
2023-05-20T08:58:27.660Z,47.41
2023-05-20T08:59:27.622Z,47.38
2023-05-20T09:00:27.616Z,47.38
2023-05-20T09:01:27.636Z,47.35
2023-05-20T09:02:27.632Z,47.36
2023-05-20T09:03:27.501Z,47.38
2023-05-20T09:04:27.518Z,47.37
2023-05-20T09:05:27.460Z,47.41
2023-05-20T09:06:27.446Z,47.37
2023-05-20T09:07:27.382Z,47.35
2023-05-20T09:08:27.358Z,47.37
2023-05-20T09:09:27.352Z,47.35
2023-05-20T09:10:27.284Z,47.38
2023-05-20T09:11:27.256Z,47.38
2023-05-20T09:12:27.230Z,47.36
2023-05-20T09:13:27.203Z,47.36
2023-05-20T09:14:27.176Z,47.38
2023-05-20T09:15:27.140Z,47.32
2023-05-20T09:16:27.187Z,47.31
2023-05-20T09:17:27.115Z,47.29
2023-05-20T09:18:27.023Z,47.28
2023-05-20T09:19:27.063Z,47.25
2023-05-20T09:20:26.966Z,47.23
2023-05-20T09:21:26.904Z,47.24
2023-05-20T09:22:26.887Z,47.23
2023-05-20T09:23:26.852Z,47.23
2023-05-20T09:24:27.140Z,47.20
2023-05-20T09:25:26.945Z,47.18
2023-05-20T09:26:26.774Z,47.14
2023-05-20T09:27:26.721Z,47.12
2023-05-20T09:28:26.767Z,47.17
2023-05-20T09:29:26.727Z,47.14
2023-05-20T09:30:26.678Z,47.14
2023-05-20T09:31:26.666Z,47.09
2023-05-20T09:32:26.709Z,47.07
2023-05-20T09:33:26.591Z,47.07
2023-05-20T09:34:26.550Z,47.10
2023-05-20T09:35:26.526Z,47.09
2023-05-20T09:36:26.492Z,47.12
2023-05-20T09:37:26.482Z,47.13
2023-05-20T09:38:26.424Z,47.13
2023-05-20T09:39:26.426Z,47.11
2023-05-20T09:40:26.386Z,47.11
2023-05-20T09:41:26.321Z,47.10
2023-05-20T09:42:26.272Z,47.07
2023-05-20T09:43:26.275Z,47.05
2023-05-20T09:44:26.207Z,47.04
2023-05-20T09:45:26.190Z,47.06
2023-05-20T09:46:26.195Z,47.05
2023-05-20T09:47:26.097Z,47.08
2023-05-20T09:48:26.099Z,47.07
2023-05-20T09:49:26.044Z,47.08
2023-05-20T09:50:26.032Z,47.08
2023-05-20T09:51:25.965Z,47.11
2023-05-20T09:52:25.952Z,47.13
2023-05-20T09:53:25.923Z,47.10
2023-05-20T09:54:25.892Z,47.07
2023-05-20T09:55:25.842Z,47.03
2023-05-20T09:56:25.842Z,46.98
2023-05-20T09:57:25.789Z,46.96
2023-05-20T09:58:25.810Z,46.96
2023-05-20T09:59:25.763Z,46.97
2023-05-20T10:00:25.712Z,46.97
2023-05-20T10:01:25.706Z,47.00
2023-05-20T10:02:25.680Z,46.98
2023-05-20T10:03:25.842Z,46.99
2023-05-20T10:04:25.565Z,46.95
2023-05-20T10:05:25.550Z,46.97
2023-05-20T10:06:25.475Z,46.99
2023-05-20T10:07:40.642Z,46.96
2023-05-20T10:08:26.437Z,47.00
2023-05-20T10:09:25.388Z,47.02
2023-05-20T10:10:25.380Z,46.95
2023-05-20T10:11:25.375Z,46.94
2023-05-20T10:12:25.330Z,46.96
2023-05-20T10:13:25.267Z,47.00
2023-05-20T10:14:25.251Z,47.01
2023-05-20T10:15:25.209Z,46.99
2023-05-20T10:16:25.206Z,47.01
2023-05-20T10:17:25.225Z,47.01
2023-05-20T10:18:25.105Z,47.00
2023-05-20T10:19:25.855Z,46.99
2023-05-20T10:20:25.037Z,46.95
2023-05-20T10:21:25.050Z,46.91
2023-05-20T10:22:25.022Z,46.94
2023-05-20T10:23:24.981Z,46.93
2023-05-20T10:24:24.924Z,46.93
2023-05-20T10:25:24.915Z,46.94
2023-05-20T10:26:24.867Z,46.93
2023-05-20T10:27:24.850Z,46.90
2023-05-20T10:28:24.809Z,46.90
2023-05-20T10:29:24.775Z,46.89
2023-05-20T10:30:24.776Z,46.95
2023-05-20T10:31:24.714Z,46.89
2023-05-20T10:32:24.793Z,46.92
2023-05-20T10:33:24.714Z,46.91
2023-05-20T10:34:24.642Z,46.91
2023-05-20T10:35:24.622Z,46.89
2023-05-20T10:36:24.618Z,46.89
2023-05-20T10:37:24.555Z,46.85
2023-05-20T10:38:24.564Z,46.82
2023-05-20T10:39:24.499Z,46.79
2023-05-20T10:40:24.468Z,46.78
2023-05-20T10:41:24.457Z,46.75
2023-05-20T10:42:24.398Z,46.73
2023-05-20T10:43:24.370Z,46.73
2023-05-20T10:44:24.380Z,46.75
2023-05-20T10:45:24.379Z,46.73
2023-05-20T10:46:33.024Z,46.75
2023-05-20T10:47:26.529Z,46.76
2023-05-20T10:48:24.416Z,46.71
2023-05-20T10:49:27.176Z,46.73
2023-05-20T10:50:24.316Z,46.71
2023-05-20T10:51:24.287Z,46.67
2023-05-20T10:52:24.220Z,46.65
2023-05-20T10:53:32.921Z,46.67
2023-05-20T10:54:25.185Z,46.65
2023-05-20T10:55:24.175Z,46.65
2023-05-20T10:56:24.147Z,46.66
2023-05-20T10:57:24.082Z,46.65
2023-05-20T10:58:24.046Z,46.65
2023-05-20T10:59:24.063Z,46.65
2023-05-20T11:00:23.980Z,46.66
2023-05-20T11:01:23.993Z,46.65
2023-05-20T11:02:23.963Z,46.63
2023-05-20T11:03:24.003Z,46.64
2023-05-20T11:04:23.881Z,46.66
2023-05-20T11:05:23.927Z,46.64
2023-05-20T11:06:23.915Z,46.66
2023-05-20T11:07:23.971Z,46.67
2023-05-20T11:08:29.169Z,46.65
2023-05-20T11:09:24.992Z,46.70
2023-05-20T11:10:24.006Z,46.68
2023-05-20T11:11:23.859Z,46.68
2023-05-20T11:12:23.877Z,46.63
2023-05-20T11:13:23.835Z,46.71
2023-05-20T11:14:23.805Z,46.69
2023-05-20T11:15:23.776Z,46.71
2023-05-20T11:16:23.775Z,46.70
2023-05-20T11:17:23.713Z,46.70
2023-05-20T11:18:23.750Z,46.71
2023-05-20T11:19:23.774Z,46.68
2023-05-20T11:20:23.772Z,46.68
2023-05-20T11:21:23.805Z,46.66
2023-05-20T11:22:23.813Z,46.64
2023-05-20T11:23:23.848Z,46.64
2023-05-20T11:24:23.864Z,46.65
2023-05-20T11:25:23.872Z,46.65
2023-05-20T11:26:23.881Z,46.66
2023-05-20T11:27:23.901Z,46.67
2023-05-20T11:28:23.953Z,46.65
2023-05-20T11:29:23.951Z,46.66
2023-05-20T11:30:23.989Z,46.67
2023-05-20T11:31:24.011Z,46.66
2023-05-20T11:32:24.125Z,46.65
2023-05-20T11:33:24.011Z,46.64
2023-05-20T11:34:26.340Z,46.57
2023-05-20T11:35:24.007Z,46.62
2023-05-20T11:36:27.903Z,46.60
2023-05-20T11:37:23.937Z,46.65
2023-05-20T11:38:23.924Z,46.65
2023-05-20T11:39:23.903Z,46.66
2023-05-20T11:40:23.882Z,46.63
2023-05-20T11:41:23.840Z,46.58
2023-05-20T11:42:23.794Z,46.55
2023-05-20T11:43:23.759Z,46.54
2023-05-20T11:44:23.716Z,46.59
2023-05-20T11:45:23.695Z,46.55
2023-05-20T11:46:23.714Z,46.54
2023-05-20T11:47:23.639Z,46.50
2023-05-20T11:48:23.586Z,46.51
2023-05-20T11:49:23.530Z,46.56
2023-05-20T11:50:23.513Z,46.56
2023-05-20T11:51:23.464Z,46.59
2023-05-20T11:52:23.452Z,46.59
2023-05-20T11:53:23.423Z,46.58
2023-05-20T11:54:23.359Z,46.58
2023-05-20T11:55:23.379Z,46.59
2023-05-20T11:56:23.326Z,46.56
2023-05-20T11:57:23.337Z,46.56
2023-05-20T11:58:23.317Z,46.55
2023-05-20T11:59:23.334Z,46.55
2023-05-20T12:00:23.362Z,46.54
2023-05-20T12:01:23.650Z,46.53
2023-05-20T12:02:23.458Z,46.53
2023-05-20T12:03:23.485Z,46.55
2023-05-20T12:04:23.502Z,46.54
2023-05-20T12:05:23.445Z,46.56
2023-05-20T12:06:23.483Z,46.57
2023-05-20T12:07:23.529Z,46.54
2023-05-20T12:08:23.504Z,46.54
2023-05-20T12:09:23.511Z,46.55
2023-05-20T12:10:23.552Z,46.54
2023-05-20T12:11:23.528Z,46.50
2023-05-20T12:12:23.553Z,46.54
2023-05-20T12:13:23.575Z,46.50
2023-05-20T12:14:25.408Z,46.48
2023-05-20T12:15:23.612Z,46.49
2023-05-20T12:16:23.711Z,46.46
2023-05-20T12:17:23.687Z,46.44
2023-05-20T12:18:23.704Z,46.43
2023-05-20T12:19:23.791Z,46.44
2023-05-20T12:20:23.773Z,46.43
2023-05-20T12:21:23.796Z,46.41
2023-05-20T12:22:23.841Z,46.40
2023-05-20T12:23:23.831Z,46.43
2023-05-20T12:24:23.883Z,46.41
2023-05-20T12:25:23.883Z,46.39
2023-05-20T12:26:23.904Z,46.42
2023-05-20T12:27:23.946Z,46.45
2023-05-20T12:28:23.976Z,46.46
2023-05-20T12:29:23.994Z,46.45
2023-05-20T12:30:24.006Z,46.44
2023-05-20T12:31:24.069Z,46.44
2023-05-20T12:32:24.134Z,46.43
2023-05-20T12:33:24.117Z,46.42
2023-05-20T12:34:24.146Z,46.45
2023-05-20T12:35:24.147Z,46.46
2023-05-20T12:36:24.201Z,46.47
2023-05-20T12:37:24.212Z,46.47
2023-05-20T12:38:24.199Z,46.46
2023-05-20T12:39:24.268Z,46.44
2023-05-20T12:40:24.332Z,46.43
2023-05-20T12:41:24.316Z,46.43
2023-05-20T12:42:24.335Z,46.43
2023-05-20T12:43:24.380Z,46.41
2023-05-20T12:44:24.393Z,46.43
2023-05-20T12:45:24.386Z,46.44
2023-05-20T12:46:24.435Z,46.41
2023-05-20T12:47:24.405Z,46.41
2023-05-20T12:48:24.373Z,46.38
2023-05-20T12:49:24.398Z,46.41
2023-05-20T12:50:24.364Z,46.38
2023-05-20T12:51:24.331Z,46.37
2023-05-20T12:52:24.371Z,46.33
2023-05-20T12:53:24.389Z,46.35